QFA1211 YSSY-YMML
Flight info
| Callsign | QFA1211 |
|---|---|
| Flight time | 1h 9m |
| Altitude | 40000 |
| Route | WOL2/34L WOL H65 LEECE Q29 ML |
| Aircraft | A35K/H-SDE2E3GHIJ3J4J5LM1ORWXY/LB1D1 |
Departure
| Time | 2026-05-04 09:31 |
|---|---|
| Airport | Sydney Kingsford Smith International Airport (YSSY) |
Arrival
| Time | 2026-05-04 10:40 |
|---|---|
| Airport | Melbourne Airport (YMML) |
| Time | Latitude | Longitude | Altitude | Speed | Heading |
|---|---|---|---|---|---|
| 2026-05-04 09:09 | -33.96434 | 151.17920 | 36 ft | 0 kts | 82° |
| 2026-05-04 09:30 | -33.96433 | 151.17930 | 36 ft | 7 kts | 82° |
| 2026-05-04 09:30 | -33.96404 | 151.18032 | 36 ft | 13 kts | 40° |
| 2026-05-04 09:30 | -33.96315 | 151.18035 | 35 ft | 16 kts | 348° |
| 2026-05-04 09:31 | -33.95947 | 151.17941 | 34 ft | 99 kts | 347° |
| 2026-05-04 09:31 | -33.94997 | 151.17691 | 137 ft | 170 kts | 349° |
| 2026-05-04 09:31 | -33.93771 | 151.17362 | 916 ft | 192 kts | 349° |
| 2026-05-04 09:31 | -33.92549 | 151.16628 | 1662 ft | 212 kts | 319° |
| 2026-05-04 09:32 | -33.91739 | 151.15079 | 2324 ft | 225 kts | 300° |
| 2026-05-04 09:32 | -33.90992 | 151.13381 | 3178 ft | 232 kts | 303° |
| 2026-05-04 09:34 | -33.84538 | 151.01488 | 5590 ft | 255 kts | 288° |
| 2026-05-04 09:34 | -33.84332 | 150.99366 | 6659 ft | 255 kts | 277° |
| 2026-05-04 09:34 | -33.84298 | 150.97222 | 7706 ft | 261 kts | 271° |
| 2026-05-04 09:34 | -33.84991 | 150.95146 | 8679 ft | 281 kts | 238° |
| 2026-05-04 09:35 | -33.86547 | 150.93639 | 9671 ft | 299 kts | 211° |
| 2026-05-04 09:35 | -33.88622 | 150.93057 | 10462 ft | 321 kts | 184° |
| 2026-05-04 09:35 | -33.90906 | 150.93616 | 10866 ft | 351 kts | 160° |
| 2026-05-04 09:35 | -33.93237 | 150.94810 | 11270 ft | 375 kts | 157° |
| 2026-05-04 09:37 | -34.11310 | 150.93579 | 15927 ft | 405 kts | 199° |
| 2026-05-04 09:37 | -34.14038 | 150.92691 | 16770 ft | 409 kts | 200° |
| 2026-05-04 09:38 | -34.16807 | 150.91791 | 17586 ft | 413 kts | 200° |
| 2026-05-04 09:38 | -34.19596 | 150.90885 | 18349 ft | 417 kts | 200° |
| 2026-05-04 09:38 | -34.22421 | 150.89969 | 19039 ft | 422 kts | 200° |
| 2026-05-04 09:38 | -34.25269 | 150.89044 | 19892 ft | 426 kts | 200° |
| 2026-05-04 09:39 | -34.28135 | 150.88115 | 20780 ft | 429 kts | 200° |
| 2026-05-04 09:39 | -34.31057 | 150.87162 | 21361 ft | 441 kts | 201° |
| 2026-05-04 09:39 | -34.34060 | 150.86182 | 21866 ft | 452 kts | 201° |
| 2026-05-04 09:39 | -34.37142 | 150.85177 | 22376 ft | 464 kts | 201° |
| 2026-05-04 09:40 | -34.40291 | 150.84151 | 22893 ft | 473 kts | 201° |
| 2026-05-04 09:40 | -34.43493 | 150.83110 | 23422 ft | 482 kts | 201° |
| 2026-05-04 09:40 | -34.46749 | 150.82049 | 23891 ft | 490 kts | 201° |
| 2026-05-04 09:40 | -34.50068 | 150.80943 | 24443 ft | 493 kts | 202° |
| 2026-05-04 09:41 | -34.53251 | 150.79444 | 25118 ft | 487 kts | 213° |
| 2026-05-04 09:42 | -34.68378 | 150.58286 | 27982 ft | 491 kts | 240° |
| 2026-05-04 09:43 | -34.70375 | 150.54923 | 27979 ft | 490 kts | 240° |
| 2026-05-04 09:43 | -34.72378 | 150.51568 | 27983 ft | 489 kts | 239° |
| 2026-05-04 09:43 | -34.74381 | 150.48224 | 27983 ft | 489 kts | 239° |
| 2026-05-04 09:43 | -34.76380 | 150.44890 | 27992 ft | 489 kts | 239° |
| 2026-05-04 09:44 | -34.80415 | 150.38153 | 28473 ft | 495 kts | 239° |
| 2026-05-04 09:44 | -34.82448 | 150.34757 | 29037 ft | 497 kts | 239° |
| 2026-05-04 09:46 | -34.96612 | 150.10950 | 32593 ft | 487 kts | 241° |
| 2026-05-04 09:46 | -34.98593 | 150.07611 | 33137 ft | 484 kts | 241° |
| 2026-05-04 09:46 | -35.00564 | 150.04285 | 33658 ft | 480 kts | 242° |
| 2026-05-04 09:47 | -35.02509 | 150.01002 | 34177 ft | 476 kts | 242° |
| 2026-05-04 09:47 | -35.04439 | 149.97740 | 34639 ft | 472 kts | 242° |
| 2026-05-04 09:49 | -35.17441 | 149.75660 | 38196 ft | 443 kts | 243° |
| 2026-05-04 09:49 | -35.19235 | 149.72599 | 38590 ft | 441 kts | 243° |
| 2026-05-04 09:49 | -35.21020 | 149.69541 | 38829 ft | 441 kts | 235° |
| 2026-05-04 09:51 | -35.31679 | 149.51296 | 40007 ft | 440 kts | 242° |
| 2026-05-04 09:51 | -35.35272 | 149.45110 | 40030 ft | 450 kts | 242° |
| 2026-05-04 09:52 | -35.38941 | 149.38790 | 40032 ft | 460 kts | 242° |
| 2026-05-04 09:52 | -35.42655 | 149.32392 | 40046 ft | 467 kts | 242° |
| 2026-05-04 09:53 | -35.46431 | 149.25880 | 40035 ft | 470 kts | 242° |
| 2026-05-04 09:53 | -35.50223 | 149.19335 | 40032 ft | 470 kts | 242° |
| 2026-05-04 09:54 | -35.54000 | 149.12795 | 40020 ft | 469 kts | 242° |
| 2026-05-04 09:54 | -35.57770 | 149.06252 | 40018 ft | 470 kts | 242° |
| 2026-05-04 09:55 | -35.61569 | 148.99639 | 40000 ft | 470 kts | 242° |
| 2026-05-04 09:55 | -35.65322 | 148.93101 | 39996 ft | 471 kts | 242° |
| 2026-05-04 09:56 | -35.68442 | 148.87658 | 39998 ft | 471 kts | 242° |
| 2026-05-04 09:56 | -35.72856 | 148.79938 | 40013 ft | 471 kts | 242° |
| 2026-05-04 09:57 | -35.75993 | 148.74442 | 39999 ft | 471 kts | 242° |
| 2026-05-04 09:57 | -35.79754 | 148.67836 | 40015 ft | 472 kts | 242° |
| 2026-05-04 09:58 | -35.83526 | 148.61202 | 40004 ft | 472 kts | 242° |
| 2026-05-04 09:58 | -35.87297 | 148.54559 | 40024 ft | 473 kts | 243° |
| 2026-05-04 10:00 | -36.02330 | 148.27840 | 40021 ft | 475 kts | 242° |
| 2026-05-04 10:04 | -36.28677 | 147.80637 | 40023 ft | 476 kts | 243° |
| 2026-05-04 10:04 | -36.32416 | 147.73894 | 40015 ft | 477 kts | 243° |
| 2026-05-04 10:05 | -36.36176 | 147.67111 | 40019 ft | 477 kts | 243° |
| 2026-05-04 10:05 | -36.39924 | 147.60307 | 40017 ft | 477 kts | 243° |
| 2026-05-04 10:06 | -36.43621 | 147.53586 | 39701 ft | 465 kts | 243° |
| 2026-05-04 10:06 | -36.45439 | 147.50278 | 39340 ft | 462 kts | 243° |
| 2026-05-04 10:06 | -36.47245 | 147.46983 | 38965 ft | 461 kts | 243° |
| 2026-05-04 10:08 | -36.58133 | 147.27035 | 36403 ft | 477 kts | 244° |
| 2026-05-04 10:08 | -36.59998 | 147.23603 | 36193 ft | 482 kts | 243° |
| 2026-05-04 10:08 | -36.63762 | 147.16694 | 35878 ft | 484 kts | 243° |
| 2026-05-04 10:09 | -36.65661 | 147.13204 | 35473 ft | 485 kts | 244° |
| 2026-05-04 10:09 | -36.67558 | 147.09710 | 35108 ft | 487 kts | 244° |
| 2026-05-04 10:09 | -36.69454 | 147.06216 | 34734 ft | 488 kts | 244° |
| 2026-05-04 10:09 | -36.71358 | 147.02704 | 34344 ft | 489 kts | 244° |
| 2026-05-04 10:10 | -36.73244 | 146.99224 | 33968 ft | 491 kts | 244° |
| 2026-05-04 10:10 | -36.75176 | 146.95650 | 33525 ft | 491 kts | 244° |
| 2026-05-04 10:10 | -36.77056 | 146.92164 | 33069 ft | 492 kts | 244° |
| 2026-05-04 10:10 | -36.78986 | 146.88582 | 32664 ft | 492 kts | 244° |
| 2026-05-04 10:11 | -36.80901 | 146.85023 | 32235 ft | 495 kts | 244° |
| 2026-05-04 10:11 | -36.82826 | 146.81443 | 31881 ft | 495 kts | 244° |
| 2026-05-04 10:11 | -36.84747 | 146.77873 | 31466 ft | 496 kts | 244° |
| 2026-05-04 10:11 | -36.86670 | 146.74292 | 31054 ft | 497 kts | 244° |
| 2026-05-04 10:12 | -36.88574 | 146.70743 | 30643 ft | 498 kts | 244° |
| 2026-05-04 10:12 | -36.90504 | 146.67145 | 30238 ft | 499 kts | 244° |
| 2026-05-04 10:12 | -36.92429 | 146.63559 | 29792 ft | 491 kts | 244° |
| 2026-05-04 10:12 | -36.94307 | 146.60061 | 29262 ft | 481 kts | 244° |
| 2026-05-04 10:13 | -36.96156 | 146.56614 | 28717 ft | 472 kts | 244° |
| 2026-05-04 10:13 | -36.97964 | 146.53238 | 28200 ft | 464 kts | 244° |
| 2026-05-04 10:13 | -36.99743 | 146.49906 | 27671 ft | 456 kts | 244° |
| 2026-05-04 10:13 | -37.01487 | 146.46630 | 27149 ft | 449 kts | 245° |
| 2026-05-04 10:14 | -37.03200 | 146.43404 | 26654 ft | 442 kts | 245° |
| 2026-05-04 10:14 | -37.04886 | 146.40228 | 26159 ft | 436 kts | 245° |
| 2026-05-04 10:16 | -37.16117 | 146.18997 | 22358 ft | 404 kts | 244° |
| 2026-05-04 10:16 | -37.17664 | 146.16062 | 21719 ft | 401 kts | 244° |
| 2026-05-04 10:16 | -37.19192 | 146.13161 | 21104 ft | 397 kts | 243° |
| 2026-05-04 10:16 | -37.20710 | 146.10276 | 20494 ft | 394 kts | 243° |
| 2026-05-04 10:17 | -37.22215 | 146.07414 | 19899 ft | 391 kts | 243° |
| 2026-05-04 10:17 | -37.23706 | 146.04578 | 19351 ft | 388 kts | 243° |
| 2026-05-04 10:19 | -37.41012 | 145.97170 | 16004 ft | 373 kts | 192° |
| 2026-05-04 10:19 | -37.43560 | 145.96768 | 15637 ft | 365 kts | 192° |
| 2026-05-04 10:19 | -37.46043 | 145.96390 | 15274 ft | 357 kts | 192° |
| 2026-05-04 10:19 | -37.48500 | 145.96019 | 14909 ft | 350 kts | 193° |
| 2026-05-04 10:20 | -37.50903 | 145.95668 | 14537 ft | 343 kts | 191° |
| 2026-05-04 10:20 | -37.53246 | 145.95324 | 14203 ft | 337 kts | 193° |
| 2026-05-04 10:20 | -37.55561 | 145.94994 | 13841 ft | 331 kts | 193° |
| 2026-05-04 10:20 | -37.57835 | 145.94678 | 13442 ft | 326 kts | 191° |
| 2026-05-04 10:21 | -37.60058 | 145.94377 | 13068 ft | 319 kts | 193° |
| 2026-05-04 10:21 | -37.62193 | 145.93943 | 12929 ft | 298 kts | 201° |
| 2026-05-04 10:21 | -37.63928 | 145.92816 | 12932 ft | 269 kts | 231° |
| 2026-05-04 10:21 | -37.64812 | 145.90887 | 12953 ft | 249 kts | 264° |
| 2026-05-04 10:22 | -37.64841 | 145.86447 | 12913 ft | 286 kts | 266° |
| 2026-05-04 10:22 | -37.65358 | 145.83800 | 12902 ft | 326 kts | 257° |
| 2026-05-04 10:22 | -37.65512 | 145.80876 | 12912 ft | 344 kts | 281° |
| 2026-05-04 10:23 | -37.65039 | 145.77891 | 12916 ft | 351 kts | 285° |
| 2026-05-04 10:23 | -37.64372 | 145.74947 | 12930 ft | 353 kts | 288° |
| 2026-05-04 10:25 | -37.58556 | 145.55305 | 11133 ft | 310 kts | 292° |
| 2026-05-04 10:25 | -37.57776 | 145.52820 | 10777 ft | 300 kts | 292° |
| 2026-05-04 10:25 | -37.57019 | 145.50409 | 10449 ft | 291 kts | 292° |
| 2026-05-04 10:25 | -37.56428 | 145.48032 | 10249 ft | 281 kts | 283° |
| 2026-05-04 10:26 | -37.56386 | 145.45671 | 10062 ft | 273 kts | 265° |
| 2026-05-04 10:26 | -37.56997 | 145.43392 | 9994 ft | 266 kts | 248° |
| 2026-05-04 10:26 | -37.58015 | 145.41453 | 9990 ft | 265 kts | 240° |
| 2026-05-04 10:26 | -37.59113 | 145.39576 | 9987 ft | 266 kts | 240° |
| 2026-05-04 10:27 | -37.60197 | 145.37719 | 9974 ft | 266 kts | 241° |
| 2026-05-04 10:27 | -37.61292 | 145.35833 | 9969 ft | 267 kts | 241° |
| 2026-05-04 10:27 | -37.62368 | 145.33982 | 9971 ft | 254 kts | 241° |
| 2026-05-04 10:27 | -37.63396 | 145.32218 | 9977 ft | 247 kts | 242° |
| 2026-05-04 10:28 | -37.64402 | 145.30473 | 9975 ft | 245 kts | 242° |
| 2026-05-04 10:28 | -37.65404 | 145.28732 | 9961 ft | 246 kts | 242° |
| 2026-05-04 10:28 | -37.66410 | 145.26983 | 9965 ft | 246 kts | 242° |
| 2026-05-04 10:28 | -37.67417 | 145.25228 | 9963 ft | 246 kts | 241° |
| 2026-05-04 10:29 | -37.68397 | 145.23535 | 9959 ft | 230 kts | 241° |
| 2026-05-04 10:29 | -37.69314 | 145.21960 | 9967 ft | 217 kts | 242° |
| 2026-05-04 10:29 | -37.70199 | 145.20428 | 9968 ft | 216 kts | 242° |
| 2026-05-04 10:29 | -37.71084 | 145.18885 | 9962 ft | 216 kts | 242° |
| 2026-05-04 10:30 | -37.71963 | 145.17346 | 9960 ft | 216 kts | 242° |
| 2026-05-04 10:30 | -37.72827 | 145.15834 | 9936 ft | 209 kts | 242° |
| 2026-05-04 10:30 | -37.73661 | 145.14395 | 9881 ft | 199 kts | 242° |
| 2026-05-04 10:30 | -37.74462 | 145.12999 | 9473 ft | 196 kts | 243° |
| 2026-05-04 10:31 | -37.75274 | 145.11569 | 8711 ft | 207 kts | 243° |
| 2026-05-04 10:31 | -37.76148 | 145.10019 | 7813 ft | 224 kts | 243° |
| 2026-05-04 10:32 | -37.81574 | 144.99774 | 3908 ft | 177 kts | 264° |
| 2026-05-04 10:33 | -37.81846 | 144.98336 | 3663 ft | 159 kts | 267° |
| 2026-05-04 10:33 | -37.82067 | 144.97096 | 3668 ft | 136 kts | 268° |
| 2026-05-04 10:33 | -37.82263 | 144.95935 | 3676 ft | 135 kts | 269° |
| 2026-05-04 10:33 | -37.82453 | 144.94781 | 3676 ft | 137 kts | 269° |
| 2026-05-04 10:34 | -37.82652 | 144.93577 | 3673 ft | 138 kts | 270° |
| 2026-05-04 10:34 | -37.82795 | 144.92388 | 3672 ft | 136 kts | 272° |
| 2026-05-04 10:34 | -37.82927 | 144.91198 | 3670 ft | 136 kts | 272° |
| 2026-05-04 10:34 | -37.83065 | 144.90008 | 3451 ft | 136 kts | 272° |
| 2026-05-04 10:35 | -37.83149 | 144.88857 | 3096 ft | 128 kts | 282° |
| 2026-05-04 10:35 | -37.82934 | 144.87820 | 2746 ft | 117 kts | 302° |
| 2026-05-04 10:35 | -37.82447 | 144.87061 | 2521 ft | 111 kts | 320° |
| 2026-05-04 10:35 | -37.81773 | 144.86590 | 2296 ft | 113 kts | 337° |
| 2026-05-04 10:36 | -37.80995 | 144.86416 | 2173 ft | 113 kts | 347° |
| 2026-05-04 10:36 | -37.80208 | 144.86273 | 2169 ft | 116 kts | 346° |
| 2026-05-04 10:36 | -37.79400 | 144.86120 | 2171 ft | 118 kts | 346° |
| 2026-05-04 10:36 | -37.78584 | 144.85969 | 2170 ft | 119 kts | 346° |
| 2026-05-04 10:37 | -37.77759 | 144.85807 | 2058 ft | 119 kts | 346° |
| 2026-05-04 10:37 | -37.76956 | 144.85644 | 1904 ft | 114 kts | 345° |
| 2026-05-04 10:37 | -37.76167 | 144.85484 | 1790 ft | 116 kts | 346° |
| 2026-05-04 10:37 | -37.75369 | 144.85330 | 1681 ft | 116 kts | 347° |
| 2026-05-04 10:39 | -37.70504 | 144.84451 | 784 ft | 119 kts | 355° |
| 2026-05-04 10:39 | -37.69690 | 144.84309 | 618 ft | 116 kts | 351° |
| 2026-05-04 10:39 | -37.68888 | 144.84159 | 457 ft | 117 kts | 355° |
| 2026-05-04 10:40 | -37.68087 | 144.84011 | 362 ft | 113 kts | 353° |
| 2026-05-04 10:40 | -37.67483 | 144.83896 | 374 ft | 57 kts | 351° |
| 2026-05-04 10:40 | -37.67249 | 144.83851 | 384 ft | 41 kts | 351° |
| 2026-05-04 10:40 | -37.66935 | 144.83867 | 389 ft | 21 kts | 19° |
| 2026-05-04 10:41 | -37.66884 | 144.83891 | 394 ft | 0 kts | 20° |
| 2026-05-04 10:41 | -37.66883 | 144.83891 | 394 ft | 0 kts | 20° |
| 2026-05-04 10:41 | -37.66881 | 144.83892 | 392 ft | 1 kts | 20° |
| 2026-05-04 10:41 | -37.66867 | 144.83899 | 396 ft | 4 kts | 20° |
| 2026-05-04 10:42 | -37.66841 | 144.83910 | 394 ft | 1 kts | 20° |
| 2026-05-04 10:42 | -37.66837 | 144.83912 | 396 ft | 0 kts | 20° |
| 2026-05-04 10:44 | -37.66707 | 144.84152 | 400 ft | 0 kts | 81° |
| 2026-05-04 10:46 | -37.66704 | 144.84176 | 398 ft | 10 kts | 81° |
| 2026-05-04 10:46 | -37.66696 | 144.84242 | 401 ft | 6 kts | 81° |
| 2026-05-04 10:47 | -37.66684 | 144.84338 | 403 ft | 14 kts | 82° |
| 2026-05-04 10:47 | -37.66683 | 144.84424 | 401 ft | 4 kts | 116° |
| 2026-05-04 10:47 | -37.66710 | 144.84443 | 403 ft | 5 kts | 166° |
| 2026-05-04 10:47 | -37.66766 | 144.84454 | 398 ft | 10 kts | 172° |